Time;durP1;ratioP1;P1;durP2;ratioP2;P2;SDS_P1;SDS_P2;PMS_P1;PMS_P2;Temp;Humidity;BMP_temperature;BMP_pressure;BME280_temperature;BME280_humidity;BME280_pressure;Samples;Min_cycle;Max_cycle;Signal;HPM_P1;HPM_P2
2021/11/20 00:04:00;;;;;;;75.53;68.70;;;;;;;12.01;100.00;103099.67;2008370;71;32955;-72
2021/11/20 00:09:46;;;;;;;80.47;73.27;;;;;;;11.97;100.00;103104.88;2014704;71;33402;-71
2021/11/20 00:15:34;;;;;;;78.07;71.07;;;;;;;11.83;100.00;103091.72;2009749;71;32833;-71
2021/11/20 00:21:22;;;;;;;76.50;69.67;;;;;;;12.03;100.00;103082.16;2005605;71;32847;-71
2021/11/20 00:27:12;;;;;;;72.50;66.07;;;;;;;11.86;100.00;103077.30;1996819;71;32762;-72
2021/11/20 00:32:59;;;;;;;75.40;68.87;;;;;;;11.90;100.00;103076.81;2005386;71;32842;-71
2021/11/20 00:35:32;;;;;;;75.30;68.67;;;;;;;11.80;100.00;103081.60;1977013;72;26717;-72
2021/11/20 00:41:19;;;;;;;76.30;69.83;;;;;;;11.85;100.00;103074.77;2002210;71;32735;-72
2021/11/20 00:47:04;;;;;;;75.33;68.83;;;;;;;11.89;100.00;103063.45;2002011;71;32839;-71
2021/11/20 00:52:50;;;;;;;74.83;68.63;;;;;;;11.98;100.00;103063.38;2011095;71;33375;-72
2021/11/20 00:58:37;;;;;;;72.50;66.07;;;;;;;11.91;100.00;103050.66;1994937;71;33471;-71
2021/11/20 01:04:24;;;;;;;70.60;64.33;;;;;;;11.95;100.00;103055.52;2009482;71;32873;-71
2021/11/20 01:10:12;;;;;;;70.60;64.40;;;;;;;11.88;100.00;103046.44;2009125;71;32947;-70
2021/11/20 01:16:00;;;;;;;68.77;62.97;;;;;;;12.04;100.00;103044.32;2011163;71;32902;-71
2021/11/20 01:21:48;;;;;;;69.87;64.17;;;;;;;11.94;100.00;103033.49;2011146;71;32868;-72
2021/11/20 01:27:33;;;;;;;67.67;62.57;;;;;;;11.94;100.00;103029.31;2014800;71;33479;-71
2021/11/20 01:33:17;;;;;;;67.00;61.80;;;;;;;11.90;100.00;103021.11;2009813;71;32862;-71
2021/11/20 01:39:03;;;;;;;67.73;62.43;;;;;;;11.96;100.00;103018.22;2003916;71;33308;-72
2021/11/20 01:44:51;;;;;;;61.07;56.67;;;;;;;12.02;100.00;103010.84;2018519;71;33466;-72
2021/11/20 01:50:39;;;;;;;60.90;56.30;;;;;;;11.99;100.00;103014.09;2013463;71;32746;-72
2021/11/20 01:56:30;;;;;;;64.30;59.43;;;;;;;11.91;100.00;103018.09;2009209;71;33363;-72
2021/11/20 01:59:05;;;;;;;64.33;59.23;;;;;;;11.84;100.00;103025.73;1970177;72;26273;-72
2021/11/20 02:04:55;;;;;;;63.37;58.37;;;;;;;11.91;100.00;103018.09;2002344;71;33350;-71
2021/11/20 02:10:44;;;;;;;64.50;59.57;;;;;;;11.91;100.00;103019.48;2010966;71;33332;-71
2021/11/20 02:16:32;;;;;;;64.07;59.47;;;;;;;11.88;100.00;103010.23;2007515;71;32811;-72
2021/11/20 02:22:21;;;;;;;62.67;58.07;;;;;;;11.88;100.00;103010.77;2006052;71;33237;-71
2021/11/20 02:24:50;;;;;;;59.10;55.00;;;;;;;11.81;100.00;103007.55;1966470;72;26267;-71
2021/11/20 02:30:36;;;;;;;58.13;54.13;;;;;;;11.95;100.00;102995.63;1995106;71;32763;-72
2021/11/20 02:36:23;;;;;;;59.43;55.27;;;;;;;11.90;100.00;102994.65;1994548;71;32837;-72
2021/11/20 02:38:58;;;;;;;58.67;54.57;;;;;;;11.84;100.00;102994.55;1961849;72;26331;-71
2021/11/20 02:44:47;;;;;;;56.50;52.50;;;;;;;11.88;100.00;102982.92;2000178;71;32991;-71
2021/11/20 02:50:39;;;;;;;55.07;50.97;;;;;;;11.91;100.00;102979.09;2018299;71;32887;-72
2021/11/20 02:56:28;;;;;;;55.37;51.50;;;;;;;11.95;100.00;102970.56;2003882;71;33311;-72
2021/11/20 03:02:14;;;;;;;56.87;53.07;;;;;;;11.91;100.00;102958.75;2012930;71;33439;-71
2021/11/20 03:07:59;;;;;;;54.93;51.23;;;;;;;11.91;100.00;102952.64;2014899;71;32907;-72
2021/11/20 03:13:46;;;;;;;53.47;49.97;;;;;;;11.83;100.00;102937.70;2005988;71;32934;-72
2021/11/20 03:19:33;;;;;;;53.00;49.50;;;;;;;11.82;100.00;102941.56;2003855;70;32921;-71
2021/11/20 03:25:18;;;;;;;54.73;51.10;;;;;;;11.84;100.00;102938.00;2016698;71;33023;-71
2021/11/20 03:31:03;;;;;;;55.20;51.70;;;;;;;11.91;100.00;102928.97;2013370;71;33297;-71
2021/11/20 03:36:46;;;;;;;53.40;49.87;;;;;;;11.85;100.00;102932.75;2007328;71;32904;-71
2021/11/20 03:42:31;;;;;;;57.00;53.20;;;;;;;11.80;100.00;102929.30;2014698;70;32940;-72
2021/11/20 03:48:16;;;;;;;53.83;50.23;;;;;;;11.79;100.00;102923.41;2003849;71;32805;-72
2021/11/20 03:54:02;;;;;;;54.50;50.90;;;;;;;11.80;100.00;102916.77;2007783;71;32747;-71
2021/11/20 03:59:48;;;;;;;54.20;50.60;;;;;;;11.89;100.00;102918.63;2012766;71;32887;-72
2021/11/20 04:05:33;;;;;;;54.37;50.87;;;;;;;11.82;100.00;102915.96;2000167;71;32855;-72
2021/11/20 04:11:20;;;;;;;53.00;49.57;;;;;;;11.82;100.00;102913.72;1994629;71;32918;-71
2021/11/20 04:17:06;;;;;;;54.30;50.73;;;;;;;11.82;100.00;102905.36;2013126;71;33307;-70
2021/11/20 04:22:51;;;;;;;54.30;50.50;;;;;;;11.84;100.00;102909.61;2007328;71;32927;-72
2021/11/20 04:28:36;;;;;;;53.50;49.90;;;;;;;11.74;100.00;102905.19;2014793;71;32839;-72
2021/11/20 04:34:20;;;;;;;52.93;49.43;;;;;;;11.79;100.00;102899.75;2005603;71;33316;-72
2021/11/20 04:40:08;;;;;;;51.60;48.30;;;;;;;11.75;100.00;102888.80;2000104;71;32952;-71
2021/11/20 04:45:53;;;;;;;51.23;47.77;;;;;;;11.80;100.00;102881.95;2000539;71;32875;-72
2021/11/20 04:51:38;;;;;;;51.87;48.57;;;;;;;11.80;100.00;102890.31;2000609;71;33404;-71
2021/11/20 04:57:21;;;;;;;52.17;48.87;;;;;;;11.74;100.00;102886.25;2000537;71;32889;-71
2021/11/20 05:03:07;;;;;;;52.40;49.10;;;;;;;11.80;100.00;102890.85;2018116;70;32995;-72
2021/11/20 05:08:52;;;;;;;51.27;47.87;;;;;;;11.65;100.00;102887.13;2016853;70;32848;-71
2021/11/20 05:14:36;;;;;;;49.87;46.67;;;;;;;11.62;100.00;102873.70;2003832;71;32902;-71
2021/11/20 05:20:22;;;;;;;52.80;49.40;;;;;;;11.70;100.00;102873.87;2007512;71;32916;-70
2021/11/20 05:26:07;;;;;;;54.27;50.73;;;;;;;11.70;100.00;102862.19;2011578;71;32781;-71
2021/11/20 05:31:51;;;;;;;53.47;49.97;;;;;;;11.64;100.00;102868.72;2014856;71;33349;-72
2021/11/20 05:37:35;;;;;;;54.10;50.47;;;;;;;11.67;100.00;102870.19;1991346;71;33318;-71
2021/11/20 05:43:23;;;;;;;54.10;50.40;;;;;;;11.58;100.00;102855.80;2016565;71;32880;-71
2021/11/20 05:49:09;;;;;;;52.97;49.47;;;;;;;11.59;100.00;102850.53;2000187;71;32979;-71
2021/11/20 05:54:54;;;;;;;52.77;49.17;;;;;;;11.46;100.00;102848.54;2018324;71;33327;-71
2021/11/20 06:00:41;;;;;;;53.97;50.40;;;;;;;11.46;100.00;102841.05;2009410;71;32892;-72
2021/11/20 06:06:26;;;;;;;53.77;50.27;;;;;;;11.47;100.00;102837.72;2011573;71;32763;-71
2021/11/20 06:12:13;;;;;;;54.10;50.50;;;;;;;11.41;100.00;102833.95;2014814;71;33306;-71
2021/11/20 06:17:57;;;;;;;53.03;49.53;;;;;;;11.42;100.00;102833.70;2016512;71;33640;-71
2021/11/20 06:23:42;;;;;;;53.70;50.30;;;;;;;11.41;100.00;102836.74;2001967;71;32915;-72
2021/11/20 06:29:25;;;;;;;52.93;49.53;;;;;;;11.38;100.00;102830.28;1998409;71;31475;-72
2021/11/20 06:35:12;;;;;;;50.87;47.57;;;;;;;11.36;100.00;102826.87;1996949;71;32849;-72
2021/11/20 06:41:00;;;;;;;52.00;48.60;;;;;;;11.36;100.00;102818.53;2002467;71;32781;-72
2021/11/20 06:46:45;;;;;;;52.97;49.67;;;;;;;11.35;100.00;102822.39;1998882;71;32860;-71
2021/11/20 06:52:29;;;;;;;52.43;49.07;;;;;;;11.28;100.00;102804.98;2006173;71;33290;-71
2021/11/20 06:58:52;;;;;;;51.63;48.37;;;;;;;11.34;100.00;102811.80;1998751;71;32952;-71
2021/11/20 07:04:22;;;;;;;52.07;48.57;;;;;;;11.32;100.00;102797.84;2005666;71;32842;-70
2021/11/20 07:06:55;;;;;;;51.87;48.57;;;;;;;11.33;100.00;102806.50;1962022;72;26205;-70
2021/11/20 07:12:40;;;;;;;52.53;49.13;;;;;;;11.26;100.00;102797.41;2014885;71;33285;-71
2021/11/20 07:18:26;;;;;;;51.60;48.40;;;;;;;11.30;100.00;102799.47;2006205;71;32839;-71
2021/11/20 07:27:18;;;;;;;51.53;48.33;;;;;;;11.31;100.00;102814.23;2053006;69;33137;-71
2021/11/20 07:29:48;;;;;;;52.63;49.40;;;;;;;11.22;100.00;102824.02;1939606;73;26249;-71
2021/11/20 07:32:18;;;;;;;51.30;48.10;;;;;;;11.22;100.00;102817.07;1941618;73;26211;-72
2021/11/20 07:34:49;;;;;;;50.30;47.03;;;;;;;11.20;100.00;102815.09;1932333;73;26220;-72
2021/11/20 07:37:19;;;;;;;50.03;46.93;;;;;;;11.23;100.00;102822.41;1936825;73;26210;-71
2021/11/20 07:39:50;;;;;;;53.60;50.30;;;;;;;11.20;100.00;102820.11;1943920;73;26269;-71
2021/11/20 07:42:20;;;;;;;52.00;48.70;;;;;;;11.23;100.00;102815.99;1966426;72;26202;-71
2021/11/20 07:44:50;;;;;;;51.17;47.87;;;;;;;11.18;100.00;102821.42;1932988;73;26236;-72
2021/11/20 07:47:20;;;;;;;51.60;48.40;;;;;;;11.18;100.00;102813.93;2015952;70;26213;-72
2021/11/20 07:49:50;;;;;;;52.30;48.90;;;;;;;11.18;100.00;102816.71;2014632;70;26696;-71
2021/11/20 07:52:20;;;;;;;49.53;46.33;;;;;;;11.27;100.00;102818.05;2012039;70;26284;-71
2021/11/20 07:54:51;;;;;;;50.27;47.13;;;;;;;11.26;100.00;102819.67;2012518;70;26277;-72
2021/11/20 07:57:22;;;;;;;51.23;48.07;;;;;;;11.29;100.00;102821.98;1996367;70;26736;-72
2021/11/20 07:59:52;;;;;;;51.83;48.53;;;;;;;11.22;100.00;102817.92;2015379;70;26300;-73
2021/11/20 08:02:22;;;;;;;50.80;47.60;;;;;;;11.22;100.00;102812.90;2016597;70;26260;-72
2021/11/20 08:04:52;;;;;;;51.40;48.13;;;;;;;11.22;100.00;102811.51;2004630;70;26215;-72
2021/11/20 08:07:22;;;;;;;52.30;49.10;;;;;;;11.21;100.00;102804.27;2018362;70;24323;-71
2021/11/20 08:09:52;;;;;;;51.20;47.90;;;;;;;11.26;100.00;102798.27;2012560;70;26701;-72
2021/11/20 08:12:22;;;;;;;50.77;47.57;;;;;;;11.25;100.00;102799.92;2016437;71;26659;-70
2021/11/20 08:14:52;;;;;;;50.37;47.17;;;;;;;11.27;100.00;102803.29;2010294;70;26713;-72
2021/11/20 08:17:22;;;;;;;53.70;50.30;;;;;;;11.31;100.00;102807.27;2013034;70;26654;-70
2021/11/20 08:19:54;;;;;;;52.53;49.17;;;;;;;11.25;100.00;102806.30;2011073;70;26207;-71
2021/11/20 08:22:25;;;;;;;53.17;49.67;;;;;;;11.19;100.00;102802.27;2005841;70;26307;-72
2021/11/20 08:24:55;;;;;;;52.93;49.47;;;;;;;11.12;100.00;102802.40;1979200;72;26207;-72
2021/11/20 08:27:25;;;;;;;52.50;49.07;;;;;;;11.18;100.00;102801.95;1983285;71;26253;-72
2021/11/20 08:29:56;;;;;;;51.97;48.67;;;;;;;11.12;100.00;102795.44;1979881;72;26645;-72
2021/11/20 08:32:29;;;;;;;51.80;48.60;;;;;;;11.16;100.00;102789.70;1908382;74;26680;-72
2021/11/20 08:34:59;;;;;;;50.37;47.10;;;;;;;11.08;100.00;102789.21;1896574;75;26200;-71
2021/11/20 08:37:30;;;;;;;52.60;49.30;;;;;;;11.15;100.00;102788.54;1936923;74;26298;-72
2021/11/20 08:40:03;;;;;;;51.90;48.60;;;;;;;11.13;100.00;102791.55;1930891;74;26251;-73
2021/11/20 08:45:50;;;;;;;50.83;47.63;;;;;;;11.26;100.00;102773.77;2011478;71;32869;-71
2021/11/20 08:51:36;;;;;;;51.30;48.00;;;;;;;11.25;100.00;102772.09;2006154;71;32768;-72
2021/11/20 08:57:21;;;;;;;51.53;47.83;;;;;;;11.28;100.00;102767.43;2009070;71;32913;-72
2021/11/20 09:03:08;;;;;;;53.77;50.13;;;;;;;11.34;100.00;102763.11;2005880;71;32961;-71
2021/11/20 09:08:56;;;;;;;55.63;51.97;;;;;;;11.29;100.00;102766.34;1998470;71;32962;-72
2021/11/20 09:14:44;;;;;;;51.97;48.60;;;;;;;11.39;100.00;102758.20;2007187;71;33413;-74
2021/11/20 09:20:30;;;;;;;54.03;50.47;;;;;;;11.48;100.00;102749.79;1998382;71;32843;-71
2021/11/20 09:26:17;;;;;;;58.17;54.13;;;;;;;11.50;100.00;102762.08;2006232;71;32760;-68
2021/11/20 09:32:03;;;;;;;67.23;62.43;;;;;;;11.43;100.00;102758.02;2014944;70;33340;-69
2021/11/20 09:37:48;;;;;;;58.03;53.67;;;;;;;11.49;100.00;102758.98;2016517;71;32989;-70
2021/11/20 09:43:35;;;;;;;69.47;63.83;;;;;;;11.46;100.00;102749.74;2009605;71;32900;-67
2021/11/20 09:49:24;;;;;;;54.03;50.33;;;;;;;11.57;100.00;102756.67;2005680;71;33333;-67
2021/11/20 09:55:12;;;;;;;55.03;51.03;;;;;;;11.78;100.00;102756.03;1991312;71;33331;-68
2021/11/20 10:01:26;;;;;;;58.10;53.93;;;;;;;11.85;100.00;102752.55;2002797;71;33387;-70
2021/11/20 10:04:09;;;;;;;57.00;52.80;;;;;;;11.93;100.00;102757.45;1942792;72;26200;-70
2021/11/20 10:09:59;;;;;;;60.00;55.73;;;;;;;11.85;100.00;102753.95;2014917;71;33414;-71
2021/11/20 10:15:57;;;;;;;59.70;55.60;;;;;;;11.97;100.00;102755.86;1995062;71;32861;-71
2021/11/20 10:18:30;;;;;;;58.93;54.63;;;;;;;11.91;100.00;102758.23;1973396;72;26374;-69
2021/11/20 10:24:20;;;;;;;60.47;56.20;;;;;;;11.99;100.00;102742.52;1963953;72;32922;-71
2021/11/20 10:30:35;;;;;;;57.93;53.80;;;;;;;12.08;100.00;102734.91;2014624;71;32910;-69
2021/11/20 10:36:31;;;;;;;60.23;55.83;;;;;;;12.17;100.00;102725.05;2004293;71;33494;-69
2021/11/20 10:42:16;;;;;;;60.03;55.93;;;;;;;12.11;100.00;102712.66;2009121;71;32910;-70
2021/11/20 10:48:09;;;;;;;60.67;56.40;;;;;;;12.26;100.00;102703.20;2008069;71;33362;-68
2021/11/20 10:54:24;;;;;;;58.77;54.60;;;;;;;12.19;100.00;102693.59;2016617;71;33463;-71
2021/11/20 11:00:35;;;;;;;55.90;52.10;;;;;;;12.22;100.00;102689.48;2000669;71;33243;-70
2021/11/20 11:10:08;;;;;;;52.83;49.23;;;;;;;12.25;100.00;102673.09;2003667;71;33008;-69
2021/11/20 11:16:05;;;;;;;52.10;48.80;;;;;;;12.22;100.00;102661.07;2016590;71;33320;-70
2021/11/20 11:21:59;;;;;;;54.57;51.00;;;;;;;12.26;100.00;102658.62;2002571;71;33318;-72
2021/11/20 11:25:02;;;;;;;52.93;49.63;;;;;;;12.29;100.00;102658.10;1978127;72;26200;-70
2021/11/20 11:30:53;;;;;;;54.70;51.20;;;;;;;12.38;100.00;102623.69;2018310;71;33289;-67
2021/11/20 11:36:41;;;;;;;52.50;49.30;;;;;;;12.37;100.00;102608.06;1998326;71;32838;-70
2021/11/20 11:42:39;;;;;;;49.63;46.33;;;;;;;12.40;100.00;102596.42;1994668;71;33494;-70
2021/11/20 11:49:17;;;;;;;47.87;44.87;;;;;;;12.39;100.00;102586.37;2005524;71;33376;-70
2021/11/20 11:55:29;;;;;;;48.30;45.40;;;;;;;12.30;100.00;102573.42;2014556;71;33461;-69
2021/11/20 12:01:25;;;;;;;48.30;45.27;;;;;;;12.31;100.00;102557.84;2006792;71;33440;-70
2021/11/20 12:07:42;;;;;;;50.23;47.23;;;;;;;12.31;100.00;102544.45;2011266;71;33525;-69
2021/11/20 12:13:34;;;;;;;49.73;46.53;;;;;;;12.33;100.00;102529.16;2016589;71;33372;-70
2021/11/20 12:19:37;;;;;;;45.97;42.97;;;;;;;12.31;100.00;102515.20;1994645;71;33407;-70
2021/11/20 12:25:30;;;;;;;47.73;44.73;;;;;;;12.31;100.00;102500.72;2011509;71;33294;-70
2021/11/20 12:31:26;;;;;;;45.90;43.20;;;;;;;12.24;100.00;102488.89;2012936;71;32928;-71
2021/11/20 12:37:34;;;;;;;45.30;42.60;;;;;;;12.26;100.00;102481.69;2006288;71;33282;-69
2021/11/20 12:40:16;;;;;;;45.33;42.73;;;;;;;12.27;100.00;102480.59;1958875;72;26350;-70
2021/11/20 12:46:17;;;;;;;49.87;46.93;;;;;;;12.32;100.00;102459.19;2000674;71;33289;-70
2021/11/20 12:52:31;;;;;;;49.90;46.90;;;;;;;12.36;100.00;102447.00;2009124;71;33390;-71
2021/11/20 12:58:27;;;;;;;50.90;48.00;;;;;;;12.34;100.00;102435.26;2002209;71;33414;-71
2021/11/20 13:04:15;;;;;;;52.23;49.03;;;;;;;12.37;100.00;102431.95;2006137;71;32767;-71
2021/11/20 13:10:04;;;;;;;53.00;49.70;;;;;;;12.31;100.00;102431.06;2016628;71;33410;-71
2021/11/20 13:12:39;;;;;;;53.33;50.13;;;;;;;12.25;100.00;102436.25;1975934;72;26315;-71
2021/11/20 13:15:21;;;;;;;50.33;47.33;;;;;;;12.25;100.00;102427.89;1986048;72;26259;-71
2021/11/20 13:21:12;;;;;;;53.20;49.53;;;;;;;12.25;100.00;102417.30;2003831;71;32842;-71
2021/11/20 13:26:57;;;;;;;51.77;48.77;;;;;;;12.11;100.00;102411.25;2013158;71;32808;-70
2021/11/20 13:32:45;;;;;;;50.57;47.47;;;;;;;12.15;100.00;102393.50;2011538;71;33387;-70
2021/11/20 13:38:30;;;;;;;51.07;48.07;;;;;;;12.17;100.00;102389.34;2011020;71;32890;-70
2021/11/20 13:44:15;;;;;;;49.00;46.10;;;;;;;12.21;100.00;102362.65;2001899;71;33283;-69
2021/11/20 13:50:02;;;;;;;49.07;46.37;;;;;;;12.31;100.00;102353.03;2002480;71;33340;-69
2021/11/20 13:55:50;;;;;;;48.37;45.63;;;;;;;12.26;100.00;102338.19;2014875;71;32838;-68
2021/11/20 14:01:43;;;;;;;46.70;44.20;;;;;;;12.26;100.00;102318.69;2014684;71;32832;-69
2021/11/20 14:07:33;;;;;;;45.23;42.73;;;;;;;12.28;100.00;102307.55;2000147;71;32842;-70
2021/11/20 14:13:18;;;;;;;50.53;47.83;;;;;;;12.09;100.00;102307.63;2004436;71;33315;-70
2021/11/20 14:19:05;;;;;;;46.20;43.50;;;;;;;12.03;100.00;102310.05;2016420;71;32829;-70
2021/11/20 14:24:51;;;;;;;48.83;46.23;;;;;;;12.12;100.00;102296.50;2004297;71;33292;-69
2021/11/20 14:30:42;;;;;;;47.60;45.00;;;;;;;12.12;100.00;102304.31;2009472;71;33428;-67
2021/11/20 14:36:39;;;;;;;45.50;42.90;;;;;;;12.10;100.00;102294.55;1994918;71;33475;-68
2021/11/20 14:42:26;;;;;;;42.17;39.67;;;;;;;12.04;100.00;102279.70;2006125;71;33239;-69
2021/11/20 14:48:27;;;;;;;47.80;45.20;;;;;;;12.05;100.00;102277.77;1998391;71;32831;-68
2021/11/20 14:54:15;;;;;;;43.63;41.03;;;;;;;11.96;100.00;102286.28;2000634;71;33425;-73
2021/11/20 15:00:02;;;;;;;53.90;50.13;;;;;;;11.97;100.00;102277.68;2004510;71;32773;-70
2021/11/20 15:05:46;;;;;;;41.50;39.10;;;;;;;11.92;100.00;102288.75;2011096;71;33339;-69
2021/11/20 15:11:31;;;;;;;44.97;42.37;;;;;;;12.02;100.00;102276.35;2012925;71;33540;-68
2021/11/20 15:17:15;;;;;;;45.57;43.03;;;;;;;11.95;100.00;102266.48;1998696;71;32778;-69
2021/11/20 15:22:59;;;;;;;47.37;44.67;;;;;;;11.93;100.00;102250.61;2014491;71;32909;-70
2021/11/20 15:28:44;;;;;;;44.17;41.77;;;;;;;11.87;100.00;102241.34;1996714;71;32954;-71
2021/11/20 15:34:30;;;;;;;41.90;39.60;;;;;;;11.85;100.00;102243.56;1994637;71;32943;-68
2021/11/20 15:40:17;;;;;;;41.67;39.27;;;;;;;11.84;100.00;102231.58;2013125;71;33269;-70
2021/11/20 15:46:03;;;;;;;46.60;43.80;;;;;;;11.73;100.00;102228.36;2005472;71;33441;-70
2021/11/20 15:51:47;;;;;;;43.33;40.83;;;;;;;11.77;100.00;102217.55;2000107;71;33014;-71
2021/11/20 15:57:34;;;;;;;45.00;42.23;;;;;;;11.96;100.00;102209.70;2009154;71;32899;-69
2021/11/20 16:03:19;;;;;;;43.63;40.90;;;;;;;11.85;100.00;102212.94;1994962;71;33382;-69
2021/11/20 16:09:06;;;;;;;41.97;39.57;;;;;;;11.74;100.00;102205.55;2018203;71;32936;-73
2021/11/20 16:14:50;;;;;;;42.53;40.03;;;;;;;11.92;100.00;102201.58;2002064;71;32897;-70
2021/11/20 16:20:34;;;;;;;44.10;41.60;;;;;;;11.89;100.00;102206.29;2009855;71;33208;-72
2021/11/20 16:26:18;;;;;;;43.87;41.37;;;;;;;11.73;100.00;102204.70;2009452;71;32890;-70
2021/11/20 16:32:05;;;;;;;45.63;42.93;;;;;;;11.63;100.00;102200.39;2011131;71;33002;-71
2021/11/20 16:37:49;;;;;;;43.43;40.73;;;;;;;11.60;100.00;102191.69;1994768;71;32836;-71
2021/11/20 16:43:33;;;;;;;42.67;39.97;;;;;;;11.66;100.00;102196.23;2012995;70;32924;-70
2021/11/20 16:49:24;;;;;;;43.10;40.50;;;;;;;11.65;100.00;102191.21;2018443;71;32903;-72
2021/11/20 16:55:08;;;;;;;42.43;39.70;;;;;;;11.73;100.00;102186.61;1939680;73;31037;-69
2021/11/20 17:00:53;;;;;;;45.73;42.93;;;;;;;11.72;100.00;102171.00;2015068;70;33443;-71
2021/11/20 17:06:38;;;;;;;44.63;42.13;;;;;;;11.77;100.00;102169.67;2009818;71;32785;-72
2021/11/20 17:12:22;;;;;;;43.70;41.20;;;;;;;11.74;100.00;102166.57;1996974;71;32884;-71
2021/11/20 17:18:06;;;;;;;44.17;41.50;;;;;;;11.68;100.00;102167.02;2014724;71;32835;-72
2021/11/20 17:23:51;;;;;;;45.90;43.13;;;;;;;11.70;100.00;102168.16;1976785;71;33592;-72
2021/11/20 17:29:38;;;;;;;47.30;44.20;;;;;;;11.57;100.00;102156.04;2014869;71;33393;-76
2021/11/20 17:35:23;;;;;;;49.10;45.60;;;;;;;11.74;100.00;102154.89;2000749;71;32863;-69
2021/11/20 17:41:07;;;;;;;48.33;45.23;;;;;;;11.72;100.00;102145.95;2004309;71;33270;-71
2021/11/20 17:46:51;;;;;;;48.50;45.33;;;;;;;11.48;100.00;102113.92;2004058;71;33349;-71
2021/11/20 17:52:35;;;;;;;48.33;45.20;;;;;;;11.68;100.00;102149.52;2007723;71;33337;-73
2021/11/20 17:58:20;;;;;;;48.47;45.23;;;;;;;11.58;100.00;102150.22;2012868;71;33403;-77
2021/11/20 18:04:06;;;;;;;47.73;44.57;;;;;;;11.50;100.00;102148.45;1907158;70;33121;-75
2021/11/20 18:09:54;;;;;;;47.90;44.80;;;;;;;11.51;100.00;102150.14;2011538;71;33403;-75
2021/11/20 18:15:37;;;;;;;48.43;45.13;;;;;;;11.57;100.00;102154.64;2004350;71;33094;-76
2021/11/20 18:21:23;;;;;;;47.27;44.07;;;;;;;11.62;100.00;102156.11;2006387;71;32849;-75
2021/11/20 18:27:07;;;;;;;49.50;46.33;;;;;;;11.58;100.00;102156.34;2000839;71;33277;-72
2021/11/20 18:32:55;;;;;;;51.70;48.40;;;;;;;11.57;100.00;102154.10;2016759;71;33405;-72
2021/11/20 18:38:41;;;;;;;48.63;45.53;;;;;;;11.63;100.00;102153.62;2018409;71;32972;-75
2021/11/20 18:44:26;;;;;;;50.23;47.07;;;;;;;11.57;100.00;102144.36;2015188;70;32955;-72
2021/11/20 18:50:10;;;;;;;47.70;44.70;;;;;;;11.50;100.00;102132.59;2002739;71;33278;-76
2021/11/20 18:55:55;;;;;;;50.10;46.80;;;;;;;11.50;100.00;102135.93;1995371;71;32870;-77
2021/11/20 19:01:39;;;;;;;50.63;47.43;;;;;;;11.50;100.00;102136.77;1997155;71;33424;-72
2021/11/20 19:07:24;;;;;;;49.83;46.73;;;;;;;11.42;100.00;102121.36;2006476;71;32750;-73
2021/11/20 19:13:08;;;;;;;51.07;47.77;;;;;;;11.37;100.00;102119.09;2000905;71;33335;-76
2021/11/20 19:18:53;;;;;;;51.07;47.67;;;;;;;11.45;100.00;102119.17;2010406;71;33363;-73
2021/11/20 19:21:24;;;;;;;49.37;46.17;;;;;;;11.39;100.00;102119.10;1959066;72;26624;-74
2021/11/20 19:27:09;;;;;;;50.50;47.40;;;;;;;11.40;100.00;102110.20;2006494;71;32832;-73
2021/11/20 19:32:53;;;;;;;51.90;48.50;;;;;;;11.40;100.00;102105.48;2013362;71;32918;-73
2021/11/20 19:38:40;;;;;;;54.40;50.90;;;;;;;11.19;100.00;102100.78;2016983;71;32912;-74
2021/11/20 19:44:24;;;;;;;55.07;51.27;;;;;;;11.07;100.00;102099.23;2015301;71;33346;-72
2021/11/20 19:50:10;;;;;;;55.37;51.70;;;;;;;10.88;100.00;102089.80;1991988;71;30884;-72
2021/11/20 19:55:55;;;;;;;55.03;51.43;;;;;;;10.68;100.00;102100.64;2018697;71;33398;-75
2021/11/20 20:01:39;;;;;;;56.03;52.23;;;;;;;10.38;100.00;102098.78;1997437;71;33273;-74
2021/11/20 20:07:23;;;;;;;53.57;49.77;;;;;;;10.47;100.00;102101.42;2013487;71;32834;-71
2021/11/20 20:13:07;;;;;;;52.37;48.53;;;;;;;10.91;100.00;102100.97;1994994;71;32972;-74
2021/11/20 20:18:52;;;;;;;54.17;50.40;;;;;;;10.76;100.00;102100.20;2016982;71;32913;-74
2021/11/20 20:24:37;;;;;;;54.60;50.80;;;;;;;10.77;100.00;102101.04;2006367;71;33342;-74
2021/11/20 20:30:24;;;;;;;55.87;51.97;;;;;;;10.73;100.00;102079.03;2011206;71;32970;-74
2021/11/20 20:36:11;;;;;;;54.47;50.70;;;;;;;10.60;100.00;102079.39;2006031;71;32912;-71
2021/11/20 20:41:55;;;;;;;55.00;51.30;;;;;;;10.64;100.00;102070.29;2006109;71;33045;-72
2021/11/20 20:47:39;;;;;;;54.80;51.10;;;;;;;10.56;100.00;102063.78;2013060;71;32898;-72
2021/11/20 20:53:24;;;;;;;56.03;52.20;;;;;;;10.27;100.00;102059.45;2013337;71;33284;-73
2021/11/20 20:59:09;;;;;;;56.27;52.37;;;;;;;10.26;100.00;102056.38;1991641;71;32753;-72
2021/11/20 21:04:53;;;;;;;54.27;50.37;;;;;;;10.40;100.00;102058.53;1995796;71;32845;-71
2021/11/20 21:10:37;;;;;;;56.63;52.70;;;;;;;10.41;100.00;102054.66;2009452;71;30956;-73
2021/11/20 21:16:23;;;;;;;56.60;52.67;;;;;;;10.39;100.00;102049.08;2011402;71;32820;-71
2021/11/20 21:22:10;;;;;;;57.37;53.37;;;;;;;10.36;100.00;102042.08;2004414;71;32789;-68
2021/11/20 21:27:55;;;;;;;56.40;52.50;;;;;;;10.36;100.00;102040.69;2002634;71;32883;-74
2021/11/20 21:33:40;;;;;;;54.73;50.93;;;;;;;10.33;100.00;102023.70;2000187;71;32822;-69
2021/11/20 21:39:24;;;;;;;56.53;52.33;;;;;;;10.50;100.00;102012.01;2011385;71;32831;-73
2021/11/20 21:45:11;;;;;;;54.57;50.77;;;;;;;10.34;100.00;102000.39;2013284;71;33358;-71
2021/11/20 21:50:55;;;;;;;56.60;52.67;;;;;;;10.21;100.00;102009.93;2005796;71;32880;-73
2021/11/20 21:56:39;;;;;;;54.53;50.83;;;;;;;10.24;100.00;102005.79;1999076;71;30816;-74
2021/11/20 22:02:24;;;;;;;52.97;49.30;;;;;;;10.44;100.00;101997.20;2015030;71;32851;-71
2021/11/20 22:08:09;;;;;;;52.87;49.27;;;;;;;10.47;100.00;101998.64;2004533;71;32872;-70
2021/11/20 22:13:53;;;;;;;54.50;50.83;;;;;;;10.31;100.00;101989.23;2015168;71;33390;-72
2021/11/20 22:19:40;;;;;;;53.27;49.77;;;;;;;10.03;100.00;101987.95;1995093;70;33295;-72
2021/11/20 22:25:26;;;;;;;53.93;50.43;;;;;;;10.11;100.00;101994.46;2016745;71;32884;-73
2021/11/20 22:31:10;;;;;;;53.53;50.13;;;;;;;10.26;100.00;101986.41;1998863;71;33364;-72
2021/11/20 22:36:56;;;;;;;53.33;50.03;;;;;;;10.31;100.00;101981.47;2009740;71;32819;-73
2021/11/20 22:42:40;;;;;;;52.47;49.17;;;;;;;10.45;100.00;101976.66;2005769;71;30881;-70
2021/11/20 22:48:26;;;;;;;51.80;48.40;;;;;;;10.54;100.00;101966.48;2008052;71;32845;-72
2021/11/20 22:54:10;;;;;;;51.80;48.60;;;;;;;10.55;100.00;101966.79;2006263;71;33267;-73
2021/11/20 22:59:56;;;;;;;51.37;48.07;;;;;;;10.63;100.00;101958.00;1998621;71;33372;-72
2021/11/20 23:05:43;;;;;;;50.67;47.53;;;;;;;10.58;100.00;101946.27;2004346;71;33326;-75
2021/11/20 23:11:29;;;;;;;47.80;44.70;;;;;;;10.60;100.00;101951.03;2015286;71;33417;-76
2021/11/20 23:17:13;;;;;;;48.70;45.50;;;;;;;10.72;100.00;101950.34;1991844;71;33011;-74
2021/11/20 23:22:57;;;;;;;50.00;46.70;;;;;;;10.64;100.00;101953.58;2001063;71;33307;-69
2021/11/20 23:28:42;;;;;;;47.53;44.53;;;;;;;10.72;100.00;101946.17;2000746;71;32888;-74
2021/11/20 23:34:27;;;;;;;50.10;46.90;;;;;;;10.70;100.00;101938.63;2003967;71;33367;-74
2021/11/20 23:40:14;;;;;;;50.40;47.20;;;;;;;10.63;100.00;101931.60;1997235;71;33385;-75
2021/11/20 23:45:58;;;;;;;50.77;47.57;;;;;;;10.68;100.00;101935.84;2011359;71;32829;-75
2021/11/20 23:51:43;;;;;;;47.60;44.37;;;;;;;10.62;100.00;101927.98;2001933;71;32871;-74
2021/11/20 23:57:26;;;;;;;50.43;47.30;;;;;;;10.65;100.00;101924.70;2006238;71;32839;-73
